createdAt,value
2017-06-10T00:00:17.479Z,13.37
2017-06-10T00:00:58.164Z,13.38
2017-06-10T00:01:39.906Z,13.31
2017-06-10T00:02:20.398Z,13.31
2017-06-10T00:03:01.013Z,13.3
2017-06-10T00:03:41.635Z,13.28
2017-06-10T00:04:22.188Z,13.22
2017-06-10T00:05:02.755Z,13.28
2017-06-10T00:05:43.390Z,13.31
2017-06-10T00:06:23.947Z,13.25
2017-06-10T00:07:04.521Z,13.19
2017-06-10T00:07:45.144Z,13.19
2017-06-10T00:08:25.679Z,13.13
2017-06-10T00:09:06.264Z,13.16
2017-06-10T00:09:46.899Z,13.05
2017-06-10T00:10:27.415Z,13.09
2017-06-10T00:11:09.089Z,13.11
2017-06-10T00:11:49.702Z,13.09
2017-06-10T00:12:30.224Z,13.04
2017-06-10T00:13:10.802Z,13.05
2017-06-10T00:13:51.430Z,12.97
2017-06-10T00:14:32.018Z,13.08
2017-06-10T00:15:12.662Z,12.97
2017-06-10T00:15:54.207Z,13.05
2017-06-10T00:16:34.722Z,13.01
2017-06-10T00:17:15.340Z,13
2017-06-10T00:17:55.965Z,12.9
2017-06-10T00:18:36.477Z,12.86
2017-06-10T00:19:17.094Z,12.9
2017-06-10T00:19:57.731Z,12.85
2017-06-10T00:20:38.297Z,12.86
2017-06-10T00:21:18.950Z,12.9
2017-06-10T00:21:59.592Z,12.86
2017-06-10T00:22:41.178Z,12.87
2017-06-10T00:23:21.810Z,12.91
2017-06-10T00:24:02.308Z,12.86
2017-06-10T00:24:43.942Z,12.86
2017-06-10T00:25:24.578Z,12.9
2017-06-10T00:26:05.141Z,12.85
2017-06-10T00:26:45.695Z,12.79
2017-06-10T00:27:26.340Z,12.86
2017-06-10T00:28:06.890Z,12.8
2017-06-10T00:28:47.537Z,12.82
2017-06-10T00:29:29.114Z,12.78
2017-06-10T00:30:09.667Z,12.78
2017-06-10T00:30:50.418Z,12.73
2017-06-10T00:31:30.973Z,12.79
2017-06-10T00:32:11.525Z,12.72
2017-06-10T00:32:52.034Z,12.65
2017-06-10T00:33:32.652Z,12.76
2017-06-10T00:34:17.731Z,12.7
2017-06-10T00:34:58.342Z,12.64
2017-06-10T00:35:38.866Z,12.7
2017-06-10T00:36:20.183Z,12.65
2017-06-10T00:37:01.788Z,12.65
2017-06-10T00:37:42.375Z,12.68
2017-06-10T00:38:23.029Z,12.57
2017-06-10T00:39:03.683Z,12.61
2017-06-10T00:39:44.339Z,12.57
2017-06-10T00:40:25.913Z,12.58
2017-06-10T00:41:06.458Z,12.58
2017-06-10T00:41:48.033Z,12.6
2017-06-10T00:42:29.607Z,12.55
2017-06-10T00:43:10.121Z,12.55
2017-06-10T00:43:52.686Z,12.54
2017-06-10T00:44:33.332Z,12.5
2017-06-10T00:45:14.915Z,12.5
2017-06-10T00:45:55.603Z,12.47
2017-06-10T00:46:36.219Z,12.54
2017-06-10T00:47:16.865Z,12.45
2017-06-10T00:47:57.536Z,12.39
2017-06-10T00:48:38.098Z,12.53
2017-06-10T00:49:18.696Z,12.47
2017-06-10T00:49:59.217Z,12.49
2017-06-10T00:50:39.820Z,12.43
2017-06-10T00:51:21.438Z,12.49
2017-06-10T00:52:02.026Z,12.54
2017-06-10T00:52:42.544Z,12.39
2017-06-10T00:53:23.178Z,12.49
2017-06-10T00:54:03.742Z,12.47
2017-06-10T00:54:45.353Z,12.46
2017-06-10T00:55:25.862Z,12.42
2017-06-10T00:56:06.487Z,12.46
2017-06-10T00:56:47.081Z,12.47
2017-06-10T00:57:28.688Z,12.29
2017-06-10T00:58:09.195Z,12.31
2017-06-10T00:58:49.803Z,12.37
2017-06-10T00:59:30.397Z,12.36
2017-06-10T01:00:12.025Z,12.35
2017-06-10T01:00:52.541Z,12.39
2017-06-10T01:01:35.190Z,12.31
2017-06-10T01:02:17.837Z,12.37
2017-06-10T01:02:59.446Z,12.32
2017-06-10T01:03:39.966Z,12.27
2017-06-10T01:04:20.575Z,12.27
2017-06-10T01:05:01.153Z,12.24
2017-06-10T01:05:41.887Z,12.27
2017-06-10T01:06:22.433Z,12.22
2017-06-10T01:07:03.084Z,12.22
2017-06-10T01:07:43.675Z,12.27
2017-06-10T01:08:24.267Z,12.21
2017-06-10T01:09:04.765Z,12.22
2017-06-10T01:09:45.373Z,12.17
2017-06-10T01:10:27.014Z,12.13
2017-06-10T01:11:08.628Z,12.15
2017-06-10T01:11:49.147Z,12.18
2017-06-10T01:12:29.742Z,12.09
2017-06-10T01:13:11.342Z,12.15
2017-06-10T01:13:51.943Z,12.12
2017-06-10T01:14:32.466Z,12.12
2017-06-10T01:15:13.069Z,12.07
2017-06-10T01:15:53.647Z,12.13
2017-06-10T01:16:35.275Z,12.09
2017-06-10T01:17:15.795Z,12.04
2017-06-10T01:17:57.424Z,12
2017-06-10T01:18:39.102Z,12.03
2017-06-10T01:19:19.756Z,11.97
2017-06-10T01:20:00.405Z,11.99
2017-06-10T01:20:41.051Z,11.99
2017-06-10T01:21:21.712Z,11.99
2017-06-10T01:22:02.360Z,12.03
2017-06-10T01:22:43.037Z,11.94
2017-06-10T01:23:23.674Z,12
2017-06-10T01:24:04.326Z,11.88
2017-06-10T01:24:44.970Z,11.87
2017-06-10T01:25:25.637Z,11.91
2017-06-10T01:26:06.286Z,11.9
2017-06-10T01:26:47.954Z,11.91
2017-06-10T01:27:29.562Z,11.87
2017-06-10T01:28:10.229Z,11.94
2017-06-10T01:28:50.969Z,11.87
2017-06-10T01:29:31.637Z,11.91
2017-06-10T01:30:13.350Z,11.86
2017-06-10T01:30:53.967Z,11.84
2017-06-10T01:31:34.602Z,11.83
2017-06-10T01:32:15.280Z,11.84
2017-06-10T01:32:55.925Z,11.87
2017-06-10T01:33:36.581Z,11.83
2017-06-10T01:34:19.278Z,11.8
2017-06-10T01:34:59.968Z,11.77
2017-06-10T01:35:41.723Z,11.8
2017-06-10T01:36:24.411Z,11.69
2017-06-10T01:37:05.082Z,11.66
2017-06-10T01:37:47.770Z,11.72
2017-06-10T01:38:28.417Z,11.75
2017-06-10T01:39:09.071Z,11.66
2017-06-10T01:39:50.763Z,11.7
2017-06-10T01:40:31.412Z,11.63
2017-06-10T01:41:12.068Z,11.65
2017-06-10T01:41:52.706Z,11.59
2017-06-10T01:42:33.368Z,11.6
2017-06-10T01:43:14.014Z,11.62
2017-06-10T01:43:56.711Z,11.59
2017-06-10T01:44:38.390Z,11.59
2017-06-10T01:45:19.050Z,11.55
2017-06-10T01:46:00.821Z,11.62
2017-06-10T01:46:41.486Z,11.6
2017-06-10T01:47:22.142Z,11.52
2017-06-10T01:48:03.825Z,11.48
2017-06-10T01:48:44.466Z,11.51
2017-06-10T01:49:25.125Z,11.62
2017-06-10T01:50:05.785Z,11.57
2017-06-10T01:50:48.477Z,11.52
2017-06-10T01:51:29.114Z,11.54
2017-06-10T01:52:10.811Z,11.57
2017-06-10T01:52:51.472Z,11.52
2017-06-10T01:53:37.032Z,11.47
2017-06-10T01:54:17.664Z,11.52
2017-06-10T01:54:58.317Z,11.57
2017-06-10T01:55:43.589Z,11.57
2017-06-10T01:56:24.230Z,11.44
2017-06-10T01:57:15.532Z,11.44
2017-06-10T01:57:58.243Z,11.41
2017-06-10T01:58:38.885Z,11.51
2017-06-10T01:59:24.060Z,11.55
2017-06-10T02:00:04.702Z,11.47
2017-06-10T02:00:45.369Z,11.5
2017-06-10T02:01:26.025Z,11.47
2017-06-10T02:02:06.668Z,11.37
2017-06-10T02:02:48.349Z,11.36
2017-06-10T02:03:29.001Z,11.5
2017-06-10T02:04:11.702Z,11.4
2017-06-10T02:04:53.377Z,11.41
2017-06-10T02:05:34.035Z,11.44
2017-06-10T02:06:16.746Z,11.37
2017-06-10T02:06:57.397Z,11.37
2017-06-10T02:07:38.095Z,11.35
2017-06-10T02:08:19.824Z,11.41
2017-06-10T02:09:00.616Z,11.37
2017-06-10T02:09:41.309Z,11.44
2017-06-10T02:10:21.873Z,11.43
2017-06-10T02:11:09.088Z,11.4
2017-06-10T02:11:50.803Z,11.32
2017-06-10T02:12:31.498Z,11.33
2017-06-10T02:13:12.024Z,11.3
2017-06-10T02:13:54.704Z,11.29
2017-06-10T02:14:35.372Z,11.35
2017-06-10T02:15:18.023Z,11.33
2017-06-10T02:15:58.730Z,11.27
2017-06-10T02:16:39.425Z,11.18
2017-06-10T02:17:22.196Z,11.23
2017-06-10T02:18:04.837Z,11.25
2017-06-10T02:18:45.482Z,11.23
2017-06-10T02:19:26.138Z,11.22
2017-06-10T02:20:06.785Z,11.27
2017-06-10T02:20:47.446Z,11.22
2017-06-10T02:21:28.091Z,11.23
2017-06-10T02:22:08.759Z,11.18
2017-06-10T02:22:49.517Z,11.19
2017-06-10T02:23:30.156Z,11.17
2017-06-10T02:24:10.799Z,11.14
2017-06-10T02:24:53.511Z,11.11
2017-06-10T02:25:35.196Z,11.15
2017-06-10T02:26:15.859Z,11.17
2017-06-10T02:26:57.593Z,11.07
2017-06-10T02:27:38.161Z,11.17
2017-06-10T02:28:24.568Z,11.14
2017-06-10T02:29:05.228Z,11.07
2017-06-10T02:29:50.582Z,11.07
2017-06-10T02:30:32.263Z,11.12
2017-06-10T02:31:17.630Z,11.05
2017-06-10T02:31:59.316Z,11.11
2017-06-10T02:32:42.014Z,10.97
2017-06-10T02:33:22.791Z,10.97
2017-06-10T02:34:03.451Z,11.04
2017-06-10T02:34:44.146Z,11.05
2017-06-10T02:35:24.698Z,11.05
2017-06-10T02:36:05.354Z,11
2017-06-10T02:36:47.086Z,11.04
2017-06-10T02:37:27.784Z,11
2017-06-10T02:38:08.311Z,11
2017-06-10T02:38:50.015Z,11
2017-06-10T02:39:31.737Z,11.04
2017-06-10T02:40:19.299Z,11.02
2017-06-10T02:40:59.816Z,11.04
2017-06-10T02:41:40.522Z,11
2017-06-10T02:42:21.218Z,11.02
2017-06-10T02:43:01.912Z,10.96
2017-06-10T02:43:42.463Z,10.9
2017-06-10T02:44:25.170Z,10.89
2017-06-10T02:45:05.914Z,10.9
2017-06-10T02:45:46.571Z,10.93
2017-06-10T02:46:27.095Z,10.92
2017-06-10T02:47:08.829Z,10.92
2017-06-10T02:47:54.417Z,10.86
2017-06-10T02:48:35.122Z,10.87
2017-06-10T02:49:15.646Z,10.94
2017-06-10T02:49:56.340Z,10.93
2017-06-10T02:50:36.927Z,10.84
2017-06-10T02:51:17.527Z,10.94
2017-06-10T02:51:58.053Z,10.84
2017-06-10T02:52:38.644Z,10.87
2017-06-10T02:53:20.257Z,10.82
2017-06-10T02:54:00.856Z,10.82
2017-06-10T02:54:41.371Z,10.84
2017-06-10T02:55:21.986Z,10.87
2017-06-10T02:56:02.563Z,10.93
2017-06-10T02:56:44.190Z,10.84
2017-06-10T02:57:24.720Z,10.87
2017-06-10T02:58:05.314Z,10.82
2017-06-10T02:58:45.889Z,10.86
2017-06-10T02:59:26.488Z,10.84
2017-06-10T03:00:07.012Z,10.87
2017-06-10T03:00:47.613Z,10.82
2017-06-10T03:01:28.215Z,10.86
2017-06-10T03:02:08.794Z,10.9
2017-06-10T03:02:49.321Z,10.86
2017-06-10T03:03:29.914Z,10.75
2017-06-10T03:04:11.474Z,10.75
2017-06-10T03:04:52.042Z,10.78
2017-06-10T03:05:32.694Z,10.75
2017-06-10T03:06:15.292Z,10.82
2017-06-10T03:06:55.843Z,10.76
2017-06-10T03:07:36.395Z,10.79
2017-06-10T03:08:16.939Z,10.79
2017-06-10T03:08:57.516Z,10.79
2017-06-10T03:09:43.986Z,10.81
2017-06-10T03:10:24.537Z,10.79
2017-06-10T03:11:05.107Z,10.84
2017-06-10T03:11:46.662Z,10.82
2017-06-10T03:12:29.262Z,10.79
2017-06-10T03:13:09.829Z,10.76
2017-06-10T03:13:50.459Z,10.86
2017-06-10T03:14:31.031Z,10.75
2017-06-10T03:15:13.620Z,10.79
2017-06-10T03:15:54.278Z,10.82
2017-06-10T03:16:34.923Z,10.84
2017-06-10T03:17:16.499Z,10.78
2017-06-10T03:17:59.096Z,10.86
2017-06-10T03:18:39.685Z,10.78
2017-06-10T03:19:20.282Z,10.74
2017-06-10T03:20:00.836Z,10.78
2017-06-10T03:20:41.402Z,10.82
2017-06-10T03:21:23.011Z,10.86
2017-06-10T03:22:03.603Z,10.81
2017-06-10T03:22:44.132Z,10.82
2017-06-10T03:23:24.748Z,10.81
2017-06-10T03:24:06.308Z,10.75
2017-06-10T03:24:46.957Z,10.81
2017-06-10T03:25:27.512Z,10.76
2017-06-10T03:26:08.062Z,10.87
2017-06-10T03:26:53.527Z,10.78
2017-06-10T03:27:38.989Z,10.81
2017-06-10T03:28:19.539Z,10.86
2017-06-10T03:29:00.138Z,10.84
2017-06-10T03:29:40.729Z,10.84
2017-06-10T03:30:21.251Z,10.82
2017-06-10T03:31:01.840Z,10.89
2017-06-10T03:31:42.441Z,10.9
2017-06-10T03:32:23.037Z,10.87
2017-06-10T03:33:03.610Z,10.84
2017-06-10T03:33:44.368Z,10.92
2017-06-10T03:34:24.958Z,10.87
2017-06-10T03:35:05.540Z,10.87
2017-06-10T03:35:46.067Z,10.92
2017-06-10T03:36:26.680Z,10.92
2017-06-10T03:37:07.255Z,10.89
2017-06-10T03:37:49.893Z,10.92
2017-06-10T03:38:30.426Z,10.89
2017-06-10T03:39:12.027Z,10.9
2017-06-10T03:39:53.696Z,10.87
2017-06-10T03:40:34.214Z,10.99
2017-06-10T03:41:15.828Z,11.07
2017-06-10T03:41:56.474Z,10.99
2017-06-10T03:42:36.994Z,11.04
2017-06-10T03:43:17.588Z,11.04
2017-06-10T03:43:59.161Z,11.02
2017-06-10T03:44:39.831Z,11.07
2017-06-10T03:45:20.478Z,11.08
2017-06-10T03:46:01.124Z,11.08
2017-06-10T03:46:41.824Z,11.11
2017-06-10T03:47:23.455Z,11.02
2017-06-10T03:48:04.160Z,11.12
2017-06-10T03:48:44.802Z,11.08
2017-06-10T03:49:25.398Z,11.08
2017-06-10T03:50:05.909Z,11.18
2017-06-10T03:50:46.514Z,11.18
2017-06-10T03:51:27.106Z,11.11
2017-06-10T03:52:08.725Z,11.15
2017-06-10T03:52:49.238Z,11.18
2017-06-10T03:53:29.865Z,11.23
2017-06-10T03:54:15.387Z,11.23
2017-06-10T03:54:56.972Z,11.3
2017-06-10T03:55:37.493Z,11.22
2017-06-10T03:56:19.124Z,11.19
2017-06-10T03:57:00.731Z,11.17
2017-06-10T03:57:41.327Z,11.19
2017-06-10T03:58:21.838Z,11.25
2017-06-10T03:59:03.476Z,11.3
2017-06-10T03:59:44.104Z,11.29
2017-06-10T04:00:24.641Z,11.37
2017-06-10T04:01:05.868Z,11.4
2017-06-10T04:01:47.495Z,11.44
2017-06-10T04:02:28.029Z,11.45
2017-06-10T04:03:09.653Z,11.43
2017-06-10T04:03:50.313Z,11.4
2017-06-10T04:04:30.795Z,11.48
2017-06-10T04:05:11.407Z,11.51
2017-06-10T04:05:52.058Z,11.52
2017-06-10T04:06:37.549Z,11.47
2017-06-10T04:07:23.072Z,11.45
2017-06-10T04:08:03.745Z,11.47
2017-06-10T04:08:45.340Z,11.55
2017-06-10T04:09:25.944Z,11.51
2017-06-10T04:10:06.451Z,11.48
2017-06-10T04:10:47.072Z,11.47
2017-06-10T04:11:28.645Z,11.63
2017-06-10T04:12:09.273Z,11.51
2017-06-10T04:12:50.362Z,11.62
2017-06-10T04:13:32.965Z,11.62
2017-06-10T04:14:13.589Z,11.57
2017-06-10T04:14:54.124Z,11.6
2017-06-10T04:15:35.738Z,11.65
2017-06-10T04:16:16.364Z,11.63
2017-06-10T04:16:56.887Z,11.55
2017-06-10T04:17:37.482Z,11.59
2017-06-10T04:18:18.125Z,11.68
2017-06-10T04:19:03.808Z,11.62
2017-06-10T04:19:44.447Z,11.72
2017-06-10T04:20:26.120Z,11.68
2017-06-10T04:21:06.777Z,11.84
2017-06-10T04:21:47.430Z,11.84
2017-06-10T04:22:28.085Z,11.84
2017-06-10T04:23:10.694Z,11.86
2017-06-10T04:23:51.215Z,11.94
2017-06-10T04:24:31.801Z,11.88
2017-06-10T04:25:12.490Z,11.9
2017-06-10T04:25:53.089Z,11.94
2017-06-10T04:26:33.654Z,11.94
2017-06-10T04:27:14.313Z,12.06
2017-06-10T04:27:56.025Z,12.03
2017-06-10T04:28:36.723Z,12.02
2017-06-10T04:29:17.244Z,12.02
2017-06-10T04:29:58.926Z,12
2017-06-10T04:30:40.582Z,12.06
2017-06-10T04:31:23.232Z,12.04
2017-06-10T04:32:03.745Z,12.07
2017-06-10T04:32:44.351Z,12.06
2017-06-10T04:33:29.851Z,12.1
2017-06-10T04:34:11.474Z,12.18
2017-06-10T04:34:51.990Z,12.18
2017-06-10T04:35:32.585Z,12.21
2017-06-10T04:36:15.230Z,12.18
2017-06-10T04:36:56.848Z,12.27
2017-06-10T04:37:37.374Z,12.35
2017-06-10T04:38:17.970Z,12.36
2017-06-10T04:38:59.574Z,12.36
2017-06-10T04:39:40.186Z,12.43
2017-06-10T04:40:20.703Z,12.4
2017-06-10T04:41:03.359Z,12.47
2017-06-10T04:41:44.037Z,12.32
2017-06-10T04:42:25.659Z,12.45
2017-06-10T04:43:06.177Z,12.45
2017-06-10T04:43:46.787Z,12.55
2017-06-10T04:44:27.441Z,12.55
2017-06-10T04:45:08.083Z,12.68
2017-06-10T04:45:48.740Z,12.68
2017-06-10T04:46:29.395Z,12.72
2017-06-10T04:47:09.904Z,12.82
2017-06-10T04:47:51.520Z,12.79
2017-06-10T04:48:32.100Z,12.87
2017-06-10T04:49:13.726Z,12.85
2017-06-10T04:49:56.335Z,12.91
2017-06-10T04:50:37.000Z,12.93
2017-06-10T04:51:23.591Z,12.95
2017-06-10T04:52:05.263Z,13.03
2017-06-10T04:52:47.848Z,13.03
2017-06-10T04:53:33.368Z,13.08
2017-06-10T04:54:15.002Z,13.11
2017-06-10T04:54:56.678Z,13.13
2017-06-10T04:55:38.359Z,13.23
2017-06-10T04:56:20.029Z,13.25
2017-06-10T04:57:00.691Z,13.28
2017-06-10T04:57:41.347Z,13.3
2017-06-10T04:58:23.020Z,13.28
2017-06-10T04:59:03.669Z,13.39
2017-06-10T04:59:44.180Z,13.44
2017-06-10T05:00:25.779Z,13.49
2017-06-10T05:01:06.431Z,13.62
2017-06-10T05:01:46.930Z,13.54
2017-06-10T05:02:27.442Z,13.62
2017-06-10T05:03:08.100Z,13.7
2017-06-10T05:03:48.746Z,13.6
2017-06-10T05:04:36.248Z,13.71
2017-06-10T05:05:16.901Z,13.68
2017-06-10T05:05:57.553Z,13.71
2017-06-10T05:06:38.206Z,13.68
2017-06-10T05:07:18.869Z,13.67
2017-06-10T05:07:59.386Z,13.78
2017-06-10T05:08:39.965Z,13.79
2017-06-10T05:09:20.561Z,13.89
2017-06-10T05:10:01.085Z,13.87
2017-06-10T05:10:42.686Z,13.86
2017-06-10T05:11:24.311Z,13.93
2017-06-10T05:12:04.834Z,13.92
2017-06-10T05:12:45.417Z,13.92
2017-06-10T05:13:26.026Z,13.93
2017-06-10T05:14:06.629Z,13.99
2017-06-10T05:14:47.164Z,14.03
2017-06-10T05:15:27.827Z,13.97
2017-06-10T05:16:08.427Z,13.93
2017-06-10T05:16:48.947Z,13.96
2017-06-10T05:17:29.449Z,13.89
2017-06-10T05:18:10.053Z,13.97
2017-06-10T05:18:50.580Z,14
2017-06-10T05:19:31.306Z,13.89
2017-06-10T05:20:11.984Z,14
2017-06-10T05:20:52.548Z,13.99
2017-06-10T05:21:33.186Z,14
2017-06-10T05:22:13.839Z,14
2017-06-10T05:22:54.339Z,13.99
2017-06-10T05:23:34.849Z,13.9
2017-06-10T05:24:15.511Z,13.95
2017-06-10T05:24:56.079Z,14
2017-06-10T05:25:36.738Z,14
2017-06-10T05:26:17.242Z,14.03
2017-06-10T05:26:57.771Z,14.03
2017-06-10T05:27:38.412Z,14.08
2017-06-10T05:28:19.001Z,14.05
2017-06-10T05:28:59.531Z,14.07
2017-06-10T05:29:41.153Z,14.07
2017-06-10T05:30:21.803Z,14.04
2017-06-10T05:31:02.432Z,14.1
2017-06-10T05:31:43.014Z,14.1
2017-06-10T05:32:23.662Z,14.08
2017-06-10T05:33:06.895Z,14.1
2017-06-10T05:33:47.434Z,14.12
2017-06-10T05:34:28.022Z,14.11
2017-06-10T05:35:08.542Z,14.23
2017-06-10T05:35:49.078Z,14.18
2017-06-10T05:36:29.756Z,14.18
2017-06-10T05:37:10.421Z,14.25
2017-06-10T05:37:51.083Z,14.26
2017-06-10T05:38:31.744Z,14.23
2017-06-10T05:39:12.423Z,14.29
2017-06-10T05:39:53.122Z,14.36
2017-06-10T05:40:33.635Z,14.33
2017-06-10T05:41:14.326Z,14.41
2017-06-10T05:41:55.036Z,14.47
2017-06-10T05:42:35.732Z,14.41
2017-06-10T05:43:16.263Z,14.41
2017-06-10T05:43:56.994Z,14.47
2017-06-10T05:44:37.693Z,14.43
2017-06-10T05:45:18.206Z,14.44
2017-06-10T05:45:58.745Z,14.45
2017-06-10T05:46:39.451Z,14.41
2017-06-10T05:47:19.969Z,14.45
2017-06-10T05:48:00.678Z,14.5
2017-06-10T05:48:41.196Z,14.45
2017-06-10T05:49:23.905Z,14.48
2017-06-10T05:50:05.605Z,14.48
2017-06-10T05:50:46.257Z,14.47
2017-06-10T05:51:27.939Z,14.48
2017-06-10T05:52:08.622Z,14.41
2017-06-10T05:52:49.265Z,14.45
2017-06-10T05:53:29.971Z,14.45
2017-06-10T05:54:10.619Z,14.44
2017-06-10T05:54:51.274Z,14.44
2017-06-10T05:55:31.930Z,14.48
2017-06-10T05:56:12.467Z,14.51
2017-06-10T05:56:53.196Z,14.55
2017-06-10T05:57:33.696Z,14.59
2017-06-10T05:58:14.359Z,14.59
2017-06-10T05:58:56.485Z,14.6
2017-06-10T05:59:37.197Z,14.55
2017-06-10T06:00:17.850Z,14.62
2017-06-10T06:00:58.523Z,14.6
2017-06-10T06:01:39.259Z,14.53
2017-06-10T06:02:19.913Z,14.63
2017-06-10T06:03:00.667Z,14.62
2017-06-10T06:03:41.320Z,14.6
2017-06-10T06:04:21.964Z,14.63
2017-06-10T06:05:02.629Z,14.63
2017-06-10T06:05:48.194Z,14.68
2017-06-10T06:06:28.831Z,14.6
2017-06-10T06:07:09.526Z,14.68
2017-06-10T06:07:50.186Z,14.7
2017-06-10T06:08:30.832Z,14.68
2017-06-10T06:09:12.409Z,14.7
2017-06-10T06:09:52.929Z,14.72
2017-06-10T06:10:33.684Z,14.73
2017-06-10T06:11:14.210Z,14.68
2017-06-10T06:11:54.872Z,14.68
2017-06-10T06:12:35.534Z,14.77
2017-06-10T06:13:16.198Z,14.68
2017-06-10T06:13:56.878Z,14.79
2017-06-10T06:14:37.573Z,14.72
2017-06-10T06:15:18.101Z,14.81
2017-06-10T06:15:58.784Z,14.91
2017-06-10T06:16:39.308Z,14.73
2017-06-10T06:17:19.904Z,14.84
2017-06-10T06:18:00.490Z,14.84
2017-06-10T06:18:41.089Z,14.88
2017-06-10T06:19:21.748Z,14.91
2017-06-10T06:20:02.403Z,14.89
2017-06-10T06:20:43.060Z,14.92
2017-06-10T06:21:23.702Z,14.84
2017-06-10T06:22:04.261Z,14.89
2017-06-10T06:22:44.911Z,14.94
2017-06-10T06:23:25.562Z,14.92
2017-06-10T06:24:06.215Z,14.96
2017-06-10T06:24:46.867Z,14.99
2017-06-10T06:25:32.235Z,14.96
2017-06-10T06:26:17.802Z,15.02
2017-06-10T06:26:58.452Z,14.96
2017-06-10T06:27:50.782Z,14.94
2017-06-10T06:28:31.332Z,15
2017-06-10T06:29:13.933Z,15.04
2017-06-10T06:29:59.297Z,15.09
2017-06-10T06:30:41.894Z,15.14
2017-06-10T06:31:23.775Z,15.06
2017-06-10T06:32:04.326Z,15.11
2017-06-10T06:32:57.776Z,15.07
2017-06-10T06:33:38.304Z,15.1
2017-06-10T06:34:18.895Z,15.21
2017-06-10T06:35:01.500Z,15.17
2017-06-10T06:35:43.177Z,15.19
2017-06-10T06:36:23.812Z,15.19
2017-06-10T06:37:04.466Z,15.24
2017-06-10T06:38:00.591Z,15.25
2017-06-10T06:39:48.483Z,15.28
2017-06-10T06:40:34.019Z,15.28
2017-06-10T06:41:19.490Z,15.27
2017-06-10T06:42:10.998Z,15.39
2017-06-10T06:42:52.621Z,15.37
2017-06-10T06:43:37.881Z,15.35
2017-06-10T06:44:18.393Z,15.37
2017-06-10T06:45:11.683Z,15.43
2017-06-10T06:45:56.947Z,15.42
2017-06-10T06:46:37.470Z,15.42
2017-06-10T06:47:19.082Z,15.43
2017-06-10T06:47:59.593Z,15.47
2017-06-10T06:48:40.092Z,15.49
2017-06-10T06:49:20.685Z,15.42
2017-06-10T06:50:01.296Z,15.47
2017-06-10T06:50:41.834Z,15.43
2017-06-10T06:51:23.410Z,15.57
2017-06-10T06:52:03.997Z,15.49
2017-06-10T06:52:44.611Z,15.49
2017-06-10T06:53:25.248Z,15.52
2017-06-10T06:54:05.751Z,15.54
2017-06-10T06:54:46.299Z,15.57
2017-06-10T06:55:26.932Z,15.52
2017-06-10T06:56:07.505Z,15.65
2017-06-10T06:56:48.104Z,15.62
2017-06-10T06:57:28.618Z,15.62
2017-06-10T06:58:09.204Z,15.61
2017-06-10T06:58:49.728Z,15.68
2017-06-10T06:59:30.355Z,15.68
2017-06-10T07:00:10.987Z,15.64
2017-06-10T07:00:51.529Z,15.65
2017-06-10T07:01:32.194Z,15.65
2017-06-10T07:02:12.844Z,15.7
2017-06-10T07:02:53.400Z,15.68
2017-06-10T07:03:33.936Z,15.68
2017-06-10T07:04:14.498Z,15.68
2017-06-10T07:04:55.036Z,15.7
2017-06-10T07:05:35.585Z,15.67
2017-06-10T07:06:16.134Z,15.67
2017-06-10T07:06:56.697Z,15.62
2017-06-10T07:07:37.248Z,15.73
2017-06-10T07:08:17.786Z,15.67
2017-06-10T07:08:58.350Z,15.76
2017-06-10T07:09:38.891Z,15.7
2017-06-10T07:10:19.436Z,15.7
2017-06-10T07:11:00.017Z,15.76
2017-06-10T07:11:40.658Z,15.72
2017-06-10T07:12:21.194Z,15.73
2017-06-10T07:13:02.777Z,15.83
2017-06-10T07:13:43.305Z,15.8
2017-06-10T07:14:24.762Z,15.91
2017-06-10T07:15:05.351Z,15.82
2017-06-10T07:15:45.889Z,15.91
2017-06-10T07:16:26.500Z,15.94
2017-06-10T07:17:07.015Z,15.91
2017-06-10T07:17:47.552Z,15.94
2017-06-10T07:18:28.114Z,15.94
2017-06-10T07:19:08.942Z,15.97
2017-06-10T07:19:49.460Z,15.95
2017-06-10T07:20:30.088Z,15.97
2017-06-10T07:21:10.697Z,16.02
2017-06-10T07:21:51.245Z,16.02
2017-06-10T07:22:31.768Z,16.01
2017-06-10T07:23:12.347Z,16.09
2017-06-10T07:23:52.878Z,16.08
2017-06-10T07:24:33.527Z,16.16
2017-06-10T07:25:14.191Z,16.15
2017-06-10T07:25:54.795Z,16.13
2017-06-10T07:26:35.331Z,16.13
2017-06-10T07:27:15.985Z,16.16
2017-06-10T07:27:56.640Z,16.28
2017-06-10T07:28:37.291Z,16.26
2017-06-10T07:29:17.839Z,16.35
2017-06-10T07:29:58.540Z,16.35
2017-06-10T07:30:39.139Z,16.41
2017-06-10T07:31:19.699Z,16.49
2017-06-10T07:32:00.246Z,16.39
2017-06-10T07:32:40.884Z,16.47
2017-06-10T07:33:21.456Z,16.46
2017-06-10T07:34:02.105Z,16.46
2017-06-10T07:34:42.703Z,16.47
2017-06-10T07:35:23.281Z,16.53
2017-06-10T07:36:03.803Z,16.6
2017-06-10T07:36:44.395Z,16.5
2017-06-10T07:37:24.994Z,16.53
2017-06-10T07:38:05.588Z,16.58
2017-06-10T07:38:46.106Z,16.53
2017-06-10T07:39:26.743Z,16.57
2017-06-10T07:40:07.251Z,16.57
2017-06-10T07:40:47.783Z,16.61
2017-06-10T07:41:28.309Z,16.64
2017-06-10T07:42:08.886Z,16.6
2017-06-10T07:42:49.385Z,16.65
2017-06-10T07:43:29.900Z,16.65
2017-06-10T07:44:10.420Z,16.61
2017-06-10T07:44:50.985Z,16.65
2017-06-10T07:45:31.509Z,16.72
2017-06-10T07:46:12.008Z,16.66
2017-06-10T07:46:52.688Z,16.71
2017-06-10T07:47:33.188Z,16.75
2017-06-10T07:48:13.706Z,16.83
2017-06-10T07:48:54.844Z,16.81
2017-06-10T07:49:35.420Z,16.83
2017-06-10T07:50:15.954Z,16.84
2017-06-10T07:50:56.507Z,16.86
2017-06-10T07:51:37.029Z,16.9
2017-06-10T07:52:17.581Z,16.89
2017-06-10T07:52:58.227Z,16.96
2017-06-10T07:53:38.836Z,16.9
2017-06-10T07:54:19.435Z,17.01
2017-06-10T07:55:00.063Z,16.89
2017-06-10T07:55:40.717Z,16.86
2017-06-10T07:56:21.329Z,16.94
2017-06-10T07:57:01.952Z,16.86
2017-06-10T07:57:42.607Z,16.93
2017-06-10T07:58:23.154Z,16.97
2017-06-10T07:59:03.691Z,16.84
2017-06-10T07:59:44.246Z,16.91
2017-06-10T08:00:24.787Z,16.84
2017-06-10T08:01:05.311Z,17.05
2017-06-10T08:01:45.840Z,16.97
2017-06-10T08:02:26.358Z,16.99
2017-06-10T08:03:06.901Z,16.99
2017-06-10T08:03:47.432Z,16.99
2017-06-10T08:04:28.011Z,16.99
2017-06-10T08:05:08.530Z,17.01
2017-06-10T08:05:49.140Z,17.06
2017-06-10T08:06:29.638Z,17.04
2017-06-10T08:07:10.194Z,17.04
2017-06-10T08:07:50.706Z,17.14
2017-06-10T08:08:31.259Z,17.09
2017-06-10T08:09:11.788Z,17.11
2017-06-10T08:09:52.280Z,17.15
2017-06-10T08:10:32.892Z,17.16
2017-06-10T08:11:13.417Z,17.14
2017-06-10T08:11:53.990Z,17.15
2017-06-10T08:12:34.568Z,17.16
2017-06-10T08:13:15.046Z,17.24
2017-06-10T08:13:55.562Z,17.29
2017-06-10T08:14:36.124Z,17.23
2017-06-10T08:15:16.715Z,17.29
2017-06-10T08:15:57.344Z,17.34
2017-06-10T08:16:37.847Z,17.34
2017-06-10T08:17:18.495Z,17.41
2017-06-10T08:17:59.051Z,17.36
2017-06-10T08:18:39.732Z,17.38
2017-06-10T08:19:20.307Z,17.41
2017-06-10T08:20:00.960Z,17.48
2017-06-10T08:20:41.622Z,17.45
2017-06-10T08:21:22.282Z,17.44
2017-06-10T08:22:02.821Z,17.44
2017-06-10T08:22:43.464Z,17.48
2017-06-10T08:23:24.123Z,17.51
2017-06-10T08:24:04.645Z,17.42
2017-06-10T08:24:45.250Z,17.52
2017-06-10T08:25:25.769Z,17.56
2017-06-10T08:26:06.354Z,17.54
2017-06-10T08:26:46.973Z,17.54
2017-06-10T08:27:27.500Z,17.59
2017-06-10T08:28:08.066Z,17.63
2017-06-10T08:28:48.651Z,17.63
2017-06-10T08:29:29.161Z,17.57
2017-06-10T08:30:09.767Z,17.64
2017-06-10T08:30:50.313Z,17.65
2017-06-10T08:31:30.941Z,17.65
2017-06-10T08:32:11.467Z,17.64
2017-06-10T08:32:52.001Z,17.67
2017-06-10T08:34:39.929Z,17.82
2017-06-10T08:35:20.527Z,17.74
2017-06-10T08:36:01.085Z,17.82
2017-06-10T08:36:41.641Z,17.8
2017-06-10T08:37:22.184Z,17.87
2017-06-10T08:38:03.770Z,17.82
2017-06-10T08:38:45.350Z,17.89
2017-06-10T08:39:25.996Z,17.89
2017-06-10T08:40:06.620Z,18.03
2017-06-10T08:40:47.156Z,17.94
2017-06-10T08:41:27.819Z,17.98
2017-06-10T08:42:08.337Z,18.04
2017-06-10T08:42:48.871Z,18.11
2017-06-10T08:43:29.437Z,18.08
2017-06-10T08:44:09.975Z,18.03
2017-06-10T08:44:50.525Z,18.05
2017-06-10T08:45:31.127Z,18.04
2017-06-10T08:46:11.662Z,18.01
2017-06-10T08:46:52.269Z,18.07
2017-06-10T08:47:32.805Z,18.15
2017-06-10T08:48:13.347Z,18.15
2017-06-10T08:48:53.985Z,18.1
2017-06-10T08:49:34.442Z,18.2
2017-06-10T08:50:14.980Z,18.16
2017-06-10T08:50:55.579Z,18.19
2017-06-10T08:51:36.101Z,18.2
2017-06-10T08:52:16.684Z,18.34
2017-06-10T08:52:57.326Z,18.33
2017-06-10T08:53:37.903Z,18.37
2017-06-10T08:54:18.553Z,18.44